createdAt,value
2022-11-06T00:01:48.134Z,87.92
2022-11-06T00:04:15.831Z,88.04
2022-11-06T00:06:48.584Z,87.95
2022-11-06T00:09:18.220Z,87.83
2022-11-06T00:11:46.237Z,87.97
2022-11-06T00:14:14.187Z,88.13
2022-11-06T00:16:44.346Z,87.98
2022-11-06T00:19:12.876Z,87.87
2022-11-06T00:21:41.074Z,87.84
2022-11-06T00:24:09.726Z,87.68
2022-11-06T00:26:38.223Z,87.52
2022-11-06T00:29:06.915Z,87.50
2022-11-06T00:31:37.227Z,87.23
2022-11-06T00:34:07.700Z,87.58
2022-11-06T00:36:36.876Z,87.70
2022-11-06T00:39:04.931Z,86.06
2022-11-06T00:41:33.136Z,85.28
2022-11-06T00:44:02.966Z,86.55
2022-11-06T00:46:31.811Z,86.21
2022-11-06T00:48:59.525Z,86.75
2022-11-06T00:51:31.337Z,86.83
2022-11-06T00:54:00.635Z,86.58
2022-11-06T00:56:29.092Z,86.90
2022-11-06T00:58:57.109Z,86.90
2022-11-06T01:01:27.659Z,86.86
2022-11-06T01:03:57.955Z,86.95
2022-11-06T01:06:29.985Z,87.23
2022-11-06T01:08:58.110Z,87.10
2022-11-06T01:11:29.490Z,85.90
2022-11-06T01:14:04.310Z,85.98
2022-11-06T01:16:33.220Z,86.13
2022-11-06T01:19:00.911Z,86.59
2022-11-06T01:21:31.909Z,86.26
2022-11-06T01:24:01.575Z,86.05
2022-11-06T01:26:38.451Z,86.12
2022-11-06T01:29:11.691Z,85.41
2022-11-06T01:31:39.846Z,85.55
2022-11-06T01:34:07.650Z,85.25
2022-11-06T01:36:37.010Z,85.39
2022-11-06T01:39:07.729Z,85.46
2022-11-06T01:41:37.863Z,85.76
2022-11-06T01:44:09.764Z,85.61
2022-11-06T01:46:38.081Z,85.13
2022-11-06T01:49:09.238Z,85.65
2022-11-06T01:51:43.439Z,86.14
2022-11-06T01:54:12.962Z,85.95
2022-11-06T01:56:42.688Z,85.64
2022-11-06T01:59:16.251Z,85.69
2022-11-06T02:01:44.517Z,85.67
2022-11-06T02:04:17.165Z,85.99
2022-11-06T02:06:48.296Z,86.38
2022-11-06T02:09:17.057Z,86.44
2022-11-06T02:11:48.016Z,86.33
2022-11-06T02:14:25.828Z,86.56
2022-11-06T02:16:57.440Z,86.27
2022-11-06T02:19:39.936Z,86.60
2022-11-06T02:22:24.899Z,86.53
2022-11-06T02:25:07.926Z,86.33
2022-11-06T02:27:37.924Z,86.13
2022-11-06T02:30:07.719Z,85.99
2022-11-06T02:32:41.426Z,85.86
2022-11-06T02:35:19.377Z,85.79
2022-11-06T02:37:48.735Z,85.58
2022-11-06T02:40:18.161Z,86.18
2022-11-06T02:42:52.846Z,85.18
2022-11-06T02:45:23.029Z,84.47
2022-11-06T02:47:54.894Z,84.82
2022-11-06T02:50:26.793Z,84.95
2022-11-06T02:52:58.813Z,83.69
2022-11-06T02:55:31.335Z,84.13
2022-11-06T02:58:06.688Z,84.46
2022-11-06T03:00:37.230Z,84.45
2022-11-06T03:03:08.005Z,84.30
2022-11-06T03:05:40.159Z,85.33
2022-11-06T03:08:15.497Z,85.58
2022-11-06T03:10:53.208Z,85.26
2022-11-06T03:13:28.587Z,85.59
2022-11-06T03:16:04.957Z,86.02
2022-11-06T03:18:40.564Z,86.15
2022-11-06T03:21:16.865Z,86.08
2022-11-06T03:23:50.065Z,85.99
2022-11-06T03:26:22.992Z,85.32
2022-11-06T03:28:55.253Z,86.02
2022-11-06T03:31:29.311Z,86.51
2022-11-06T03:34:02.759Z,86.38
2022-11-06T03:36:35.232Z,85.51
2022-11-06T03:39:06.329Z,84.82
2022-11-06T03:41:39.805Z,85.82
2022-11-06T03:44:13.677Z,85.13
2022-11-06T03:46:48.321Z,85.61
2022-11-06T03:49:21.817Z,85.68
2022-11-06T03:51:55.881Z,85.97
2022-11-06T03:54:27.622Z,86.25
2022-11-06T03:57:01.666Z,86.05
2022-11-06T03:59:35.581Z,85.86
2022-11-06T04:02:05.095Z,86.23
2022-11-06T04:04:39.513Z,86.19
2022-11-06T04:07:10.996Z,85.90
2022-11-06T04:09:59.182Z,85.31
2022-11-06T04:12:49.049Z,85.73
2022-11-06T04:15:20.504Z,85.62
2022-11-06T04:17:48.507Z,85.26
2022-11-06T04:20:34.435Z,85.46
2022-11-06T04:23:10.324Z,85.68
2022-11-06T04:26:15.379Z,85.11
2022-11-06T04:28:52.848Z,85.33
2022-11-06T04:31:28.373Z,85.50
2022-11-06T04:34:02.039Z,84.66
2022-11-06T04:36:35.922Z,84.97
2022-11-06T04:39:10.979Z,85.14
2022-11-06T04:41:43.707Z,86.17
2022-11-06T04:44:16.288Z,85.57
2022-11-06T04:46:50.279Z,85.75
2022-11-06T04:49:19.552Z,86.15
2022-11-06T04:51:48.850Z,85.87
2022-11-06T04:54:17.318Z,85.85
2022-11-06T04:56:46.512Z,86.70
2022-11-06T04:59:17.927Z,85.91
2022-11-06T05:01:47.506Z,86.07
2022-11-06T05:04:15.368Z,86.30
2022-11-06T05:06:43.078Z,86.18
2022-11-06T05:09:10.796Z,86.04
2022-11-06T05:11:39.007Z,86.37
2022-11-06T05:14:06.711Z,85.65
2022-11-06T05:16:34.674Z,86.19
2022-11-06T05:19:04.042Z,85.71
2022-11-06T05:21:49.781Z,86.22
2022-11-06T05:24:17.650Z,86.01
2022-11-06T05:26:45.361Z,86.21
2022-11-06T05:29:13.647Z,85.80
2022-11-06T05:31:41.628Z,85.80
2022-11-06T05:34:10.843Z,85.10
2022-11-06T05:36:39.189Z,85.43
2022-11-06T05:39:06.911Z,85.07
2022-11-06T05:41:34.747Z,85.21
2022-11-06T05:44:02.582Z,85.33
2022-11-06T05:46:49.223Z,85.76
2022-11-06T05:49:19.297Z,85.53
2022-11-06T05:51:47.492Z,85.14
2022-11-06T05:54:15.614Z,86.12
2022-11-06T05:56:43.982Z,85.93
2022-11-06T05:59:11.880Z,85.84
2022-11-06T06:01:39.998Z,86.03
2022-11-06T06:04:07.714Z,85.47
2022-11-06T06:06:37.840Z,85.97
2022-11-06T06:09:05.793Z,86.18
2022-11-06T06:11:34.667Z,85.77
2022-11-06T06:14:02.362Z,85.86
2022-11-06T06:16:30.817Z,85.61
2022-11-06T06:18:58.496Z,85.70
2022-11-06T06:21:26.189Z,85.16
2022-11-06T06:23:55.453Z,84.91
2022-11-06T06:26:23.462Z,85.38
2022-11-06T06:28:51.107Z,86.06
2022-11-06T06:31:19.108Z,85.75
2022-11-06T06:33:46.932Z,84.93
2022-11-06T06:36:15.015Z,84.66
2022-11-06T06:38:42.718Z,84.76
2022-11-06T06:41:12.267Z,84.13
2022-11-06T06:43:39.922Z,84.77
2022-11-06T06:46:08.314Z,84.39
2022-11-06T06:48:36.655Z,84.64
2022-11-06T06:51:07.752Z,84.75
2022-11-06T06:53:36.310Z,85.26
2022-11-06T06:56:05.288Z,85.56
2022-11-06T06:58:34.393Z,85.16
2022-11-06T07:01:03.509Z,84.74
2022-11-06T07:03:32.116Z,84.01
2022-11-06T07:06:00.328Z,83.79
2022-11-06T07:08:28.695Z,83.99
2022-11-06T07:11:00.183Z,84.10
2022-11-06T07:13:32.781Z,84.48
2022-11-06T07:16:06.068Z,84.22
2022-11-06T07:18:33.803Z,84.24
2022-11-06T07:21:02.495Z,83.71
2022-11-06T07:23:30.153Z,84.42
2022-11-06T07:25:58.104Z,83.98
2022-11-06T07:28:25.829Z,83.18
2022-11-06T07:30:53.975Z,82.71
2022-11-06T07:33:22.987Z,83.45
2022-11-06T07:35:50.677Z,82.62
2022-11-06T07:38:18.336Z,82.64
2022-11-06T07:40:46.182Z,82.46
2022-11-06T07:43:13.933Z,82.12
2022-11-06T07:45:41.949Z,82.60
2022-11-06T07:48:09.666Z,81.84
2022-11-06T07:50:38.984Z,81.67
2022-11-06T07:53:06.819Z,81.13
2022-11-06T07:55:37.834Z,80.81
2022-11-06T07:58:09.563Z,81.31
2022-11-06T08:00:37.588Z,80.94
2022-11-06T08:03:05.268Z,81.52
2022-11-06T08:05:33.244Z,81.76
2022-11-06T08:08:02.283Z,81.52
2022-11-06T08:10:29.980Z,80.86
2022-11-06T08:13:00.079Z,80.75
2022-11-06T08:15:27.795Z,80.80
2022-11-06T08:17:55.488Z,80.10
2022-11-06T08:20:23.140Z,79.60
2022-11-06T08:22:50.826Z,79.87
2022-11-06T08:25:19.960Z,80.00
2022-11-06T08:27:47.620Z,79.76
2022-11-06T08:30:15.332Z,80.30
2022-11-06T08:32:43.009Z,80.43
2022-11-06T08:35:10.821Z,80.54
2022-11-06T08:37:38.483Z,80.60
2022-11-06T08:40:07.309Z,81.27
2022-11-06T08:42:36.640Z,81.39
2022-11-06T08:45:04.960Z,80.75
2022-11-06T08:47:32.636Z,80.55
2022-11-06T08:50:00.353Z,80.75
2022-11-06T08:52:33.684Z,82.04
2022-11-06T08:55:01.831Z,82.57
2022-11-06T08:57:29.757Z,82.56
2022-11-06T08:59:58.813Z,82.16
2022-11-06T09:02:26.803Z,81.96
2022-11-06T09:04:54.548Z,82.36
2022-11-06T09:07:22.590Z,83.09
2022-11-06T09:09:50.236Z,82.63
2022-11-06T09:12:18.271Z,82.50
2022-11-06T09:14:45.940Z,83.22
2022-11-06T09:17:15.354Z,82.82
2022-11-06T09:19:43.325Z,82.60
2022-11-06T09:22:11.782Z,82.87
2022-11-06T09:25:01.994Z,82.38
2022-11-06T09:27:27.717Z,82.18
2022-11-06T09:29:55.450Z,82.39
2022-11-06T09:32:24.997Z,82.12
2022-11-06T09:34:53.066Z,82.14
2022-11-06T09:37:21.502Z,82.46
2022-11-06T09:39:49.171Z,81.46
2022-11-06T09:42:26.874Z,81.66
2022-11-06T09:45:04.142Z,81.85
2022-11-06T09:47:36.912Z,81.30
2022-11-06T09:50:07.927Z,81.62
2022-11-06T09:52:42.100Z,81.22
2022-11-06T09:55:16.206Z,81.89
2022-11-06T09:57:48.703Z,81.49
2022-11-06T10:00:18.656Z,81.45
2022-11-06T10:02:51.645Z,80.20
2022-11-06T10:05:26.564Z,78.04
2022-11-06T10:07:57.665Z,76.12
2022-11-06T10:10:31.363Z,75.87
2022-11-06T10:13:17.459Z,73.34
2022-11-06T10:15:54.215Z,72.03
2022-11-06T10:18:35.268Z,68.95
2022-11-06T10:21:11.888Z,67.55
2022-11-06T10:23:49.000Z,65.27
2022-11-06T10:26:19.466Z,64.94
2022-11-06T10:29:22.986Z,64.91
2022-11-06T10:32:05.905Z,64.43
2022-11-06T10:34:40.488Z,64.05
2022-11-06T10:37:14.360Z,62.83
2022-11-06T10:39:42.735Z,61.52
2022-11-06T10:42:17.007Z,59.38
2022-11-06T10:44:49.830Z,58.14
2022-11-06T10:47:21.610Z,57.24
2022-11-06T10:49:54.352Z,58.01
2022-11-06T10:52:37.687Z,58.38
2022-11-06T10:55:41.189Z,57.03
2022-11-06T10:58:11.212Z,57.50
2022-11-06T11:00:39.847Z,58.04
2022-11-06T11:03:17.608Z,57.09
2022-11-06T11:05:47.121Z,57.25
2022-11-06T11:08:37.625Z,57.21
2022-11-06T11:11:08.400Z,58.08
2022-11-06T11:13:36.041Z,57.32
2022-11-06T11:16:05.348Z,57.34
2022-11-06T11:18:34.148Z,57.80
2022-11-06T11:21:23.832Z,57.58
2022-11-06T11:24:07.239Z,57.68
2022-11-06T11:26:39.777Z,57.41
2022-11-06T11:29:15.060Z,57.46
2022-11-06T11:31:48.849Z,57.88
2022-11-06T11:34:20.677Z,58.45
2022-11-06T11:36:54.108Z,58.56
2022-11-06T11:39:25.142Z,59.22
2022-11-06T11:41:53.289Z,59.15
2022-11-06T11:44:21.509Z,59.04
2022-11-06T11:46:51.756Z,58.00
2022-11-06T11:49:30.629Z,57.50
2022-11-06T11:52:02.538Z,56.68
2022-11-06T11:54:33.245Z,56.80
2022-11-06T11:57:05.679Z,57.24
2022-11-06T11:59:42.513Z,57.55
2022-11-06T12:02:20.937Z,56.67
2022-11-06T12:04:55.331Z,54.96
2022-11-06T12:07:29.191Z,55.56
2022-11-06T12:09:57.133Z,55.35
2022-11-06T12:12:29.437Z,54.71
2022-11-06T12:15:19.225Z,55.40
2022-11-06T12:17:53.539Z,54.08
2022-11-06T12:20:27.301Z,53.55
2022-11-06T12:22:59.186Z,55.11
2022-11-06T12:25:32.118Z,56.35
2022-11-06T12:28:02.910Z,58.12
2022-11-06T12:30:34.359Z,59.88
2022-11-06T12:33:07.306Z,60.02
2022-11-06T12:35:39.461Z,60.55
2022-11-06T12:38:16.754Z,60.80
2022-11-06T12:40:50.667Z,61.04
2022-11-06T12:43:23.412Z,61.00
2022-11-06T12:46:08.692Z,61.33
2022-11-06T12:48:51.303Z,61.07
2022-11-06T12:51:31.449Z,62.01
2022-11-06T12:54:21.528Z,63.30
2022-11-06T12:56:58.391Z,63.31
2022-11-06T12:59:38.464Z,64.21
2022-11-06T13:02:24.362Z,64.70
2022-11-06T13:04:56.811Z,65.20
2022-11-06T13:07:58.121Z,66.53
2022-11-06T13:10:39.552Z,66.00
2022-11-06T13:13:23.623Z,66.41
2022-11-06T13:16:00.084Z,67.32
2022-11-06T13:18:32.504Z,67.48
2022-11-06T13:21:05.981Z,66.57
2022-11-06T13:23:39.356Z,66.81
2022-11-06T13:26:17.581Z,66.56
2022-11-06T13:28:49.760Z,66.26
2022-11-06T13:31:21.572Z,64.72
2022-11-06T13:33:53.260Z,65.39
2022-11-06T13:36:22.415Z,64.08
2022-11-06T13:38:55.030Z,63.24
2022-11-06T13:41:28.196Z,64.47
2022-11-06T13:44:00.070Z,64.23
2022-11-06T13:46:38.456Z,64.65
2022-11-06T13:49:18.726Z,64.23
2022-11-06T13:51:52.725Z,63.80
2022-11-06T13:54:30.332Z,63.64
2022-11-06T13:57:28.395Z,63.28
2022-11-06T14:00:11.460Z,63.62
2022-11-06T14:03:05.760Z,64.08
2022-11-06T14:05:59.175Z,63.65
2022-11-06T14:08:30.971Z,64.68
2022-11-06T14:11:02.210Z,65.62
2022-11-06T14:13:34.574Z,65.56
2022-11-06T14:16:28.782Z,65.47
2022-11-06T14:18:59.081Z,65.55
2022-11-06T14:21:44.022Z,63.93
2022-11-06T14:24:34.066Z,63.80
2022-11-06T14:27:03.812Z,63.94
2022-11-06T14:29:58.201Z,64.57
2022-11-06T14:32:41.348Z,64.25
2022-11-06T14:35:51.911Z,64.28
2022-11-06T14:38:34.917Z,64.83
2022-11-06T14:41:24.128Z,65.03
2022-11-06T14:43:54.712Z,65.41
2022-11-06T14:46:25.089Z,65.78
2022-11-06T14:48:55.659Z,66.02
2022-11-06T14:51:28.055Z,66.27
2022-11-06T14:53:59.357Z,66.34
2022-11-06T14:56:30.169Z,66.29
2022-11-06T14:59:00.175Z,66.64
2022-11-06T15:01:32.476Z,67.12
2022-11-06T15:04:04.117Z,67.59
2022-11-06T15:06:41.170Z,67.94
2022-11-06T15:09:13.479Z,68.35
2022-11-06T15:11:54.065Z,68.70
2022-11-06T15:14:57.179Z,69.02
2022-11-06T15:17:28.712Z,69.41
2022-11-06T15:20:02.595Z,69.69
2022-11-06T15:22:36.915Z,70.18
2022-11-06T15:25:19.589Z,70.54
2022-11-06T15:27:53.211Z,70.88
2022-11-06T15:30:21.936Z,70.73
2022-11-06T15:32:54.515Z,70.88
2022-11-06T15:35:25.779Z,71.06
2022-11-06T15:37:56.947Z,71.23
2022-11-06T15:40:29.339Z,71.34
2022-11-06T15:43:01.123Z,71.53
2022-11-06T15:45:30.748Z,71.65
2022-11-06T15:48:01.595Z,72.00
2022-11-06T15:50:30.963Z,72.52
2022-11-06T15:53:18.040Z,73.13
2022-11-06T15:55:52.259Z,73.14
2022-11-06T15:58:31.763Z,73.78
2022-11-06T16:01:01.117Z,74.16
2022-11-06T16:03:33.124Z,74.83
2022-11-06T16:06:03.933Z,74.59
2022-11-06T16:08:33.436Z,75.48
2022-11-06T16:11:02.796Z,75.49
2022-11-06T16:13:31.412Z,75.82
2022-11-06T16:16:01.780Z,76.10
2022-11-06T16:18:34.405Z,76.23
2022-11-06T16:21:10.089Z,76.52
2022-11-06T16:23:40.402Z,77.04
2022-11-06T16:26:10.264Z,77.40
2022-11-06T16:28:44.062Z,77.75
2022-11-06T16:31:16.322Z,77.57
2022-11-06T16:33:56.225Z,77.47
2022-11-06T16:36:25.208Z,77.72
2022-11-06T16:38:53.409Z,78.29
2022-11-06T16:41:40.653Z,78.45
2022-11-06T16:44:27.874Z,78.19
2022-11-06T16:47:23.328Z,78.63
2022-11-06T16:49:54.644Z,78.50
2022-11-06T16:52:27.303Z,78.52
2022-11-06T16:54:58.279Z,79.06
2022-11-06T16:57:28.872Z,79.40
2022-11-06T16:59:59.645Z,79.02
2022-11-06T17:02:30.433Z,79.18
2022-11-06T17:05:14.169Z,79.60
2022-11-06T17:07:42.467Z,79.76
2022-11-06T17:10:27.201Z,79.86
2022-11-06T17:12:54.862Z,79.26
2022-11-06T17:15:22.533Z,78.88
2022-11-06T17:17:51.413Z,78.84
2022-11-06T17:20:20.655Z,78.86
2022-11-06T17:22:49.957Z,79.73
2022-11-06T17:25:17.677Z,79.59
2022-11-06T17:27:45.375Z,79.32
2022-11-06T17:30:14.672Z,79.91
2022-11-06T17:32:42.671Z,79.61
2022-11-06T17:35:10.562Z,79.55
2022-11-06T17:37:39.607Z,80.26
2022-11-06T17:40:08.150Z,80.57
2022-11-06T17:42:36.860Z,81.98
2022-11-06T17:45:04.802Z,81.43
2022-11-06T17:47:32.451Z,82.18
2022-11-06T17:50:00.279Z,82.06
2022-11-06T17:52:27.988Z,81.55
2022-11-06T17:54:57.379Z,81.92
2022-11-06T17:57:25.436Z,81.57
2022-11-06T17:59:53.144Z,81.69
2022-11-06T18:02:40.736Z,82.42
2022-11-06T18:05:09.261Z,83.00
2022-11-06T18:07:36.896Z,82.50
2022-11-06T18:10:06.672Z,82.58
2022-11-06T18:12:34.730Z,82.16
2022-11-06T18:15:02.376Z,82.72
2022-11-06T18:17:30.346Z,83.11
2022-11-06T18:19:57.977Z,82.92
2022-11-06T18:22:25.952Z,82.87
2022-11-06T18:24:53.892Z,82.49
2022-11-06T18:27:23.218Z,82.77
2022-11-06T18:29:50.869Z,82.77
2022-11-06T18:32:18.587Z,82.14
2022-11-06T18:34:46.238Z,81.82
2022-11-06T18:37:13.876Z,81.57
2022-11-06T18:39:41.529Z,82.22
2022-11-06T18:42:12.107Z,82.56
2022-11-06T18:44:41.929Z,82.92
2022-11-06T18:47:09.637Z,83.89
2022-11-06T18:49:37.358Z,83.56
2022-11-06T18:52:05.416Z,83.44
2022-11-06T18:54:33.066Z,83.51
2022-11-06T18:57:01.081Z,83.10
2022-11-06T18:59:29.275Z,82.59
2022-11-06T19:01:58.534Z,83.22
2022-11-06T19:04:27.841Z,82.97
2022-11-06T19:06:56.274Z,82.53
2022-11-06T19:09:23.953Z,81.64
2022-11-06T19:11:51.615Z,81.46
2022-11-06T19:14:19.293Z,81.32
2022-11-06T19:16:47.316Z,80.64
2022-11-06T19:19:25.123Z,81.02
2022-11-06T19:21:54.211Z,81.66
2022-11-06T19:24:22.069Z,81.46
2022-11-06T19:26:50.289Z,81.76
2022-11-06T19:29:18.051Z,81.26
2022-11-06T19:31:45.712Z,80.07
2022-11-06T19:34:14.443Z,79.13
2022-11-06T19:36:43.808Z,79.19
2022-11-06T19:39:11.575Z,78.33
2022-11-06T19:41:41.669Z,78.32
2022-11-06T19:44:10.051Z,78.64
2022-11-06T19:46:37.766Z,77.92
2022-11-06T19:49:06.748Z,77.34
2022-11-06T19:51:37.440Z,76.78
2022-11-06T19:54:07.561Z,76.21
2022-11-06T19:56:35.376Z,75.74
2022-11-06T19:59:03.047Z,75.59
2022-11-06T20:01:33.783Z,74.90
2022-11-06T20:04:01.739Z,74.67
2022-11-06T20:06:29.487Z,74.08
2022-11-06T20:08:57.168Z,73.22
2022-11-06T20:11:26.163Z,72.96
2022-11-06T20:13:53.809Z,72.28
2022-11-06T20:16:22.262Z,71.37
2022-11-06T20:18:53.743Z,71.01
2022-11-06T20:21:21.980Z,70.68
2022-11-06T20:23:50.190Z,70.72
2022-11-06T20:26:18.191Z,71.03
2022-11-06T20:28:48.411Z,70.39
2022-11-06T20:31:20.080Z,71.25
2022-11-06T20:33:48.366Z,70.93
2022-11-06T20:36:19.644Z,70.84
2022-11-06T20:38:47.900Z,70.43
2022-11-06T20:41:16.036Z,69.76
2022-11-06T20:43:44.373Z,70.66
2022-11-06T20:46:15.391Z,71.24
2022-11-06T20:48:44.853Z,70.53
2022-11-06T20:51:14.757Z,70.74
2022-11-06T20:53:42.789Z,70.76
2022-11-06T20:56:13.666Z,70.29
2022-11-06T20:58:41.565Z,70.81
2022-11-06T21:01:11.803Z,70.80
2022-11-06T21:03:41.629Z,71.22
2022-11-06T21:06:10.583Z,68.94
2022-11-06T21:08:39.944Z,69.03
2022-11-06T21:11:11.853Z,68.43
2022-11-06T21:13:40.637Z,68.29
2022-11-06T21:16:12.676Z,67.89
2022-11-06T21:18:42.444Z,66.72
2022-11-06T21:21:12.453Z,66.21
2022-11-06T21:23:40.698Z,66.03
2022-11-06T21:26:10.806Z,66.03
2022-11-06T21:28:39.715Z,65.82
2022-11-06T21:31:10.398Z,65.02
2022-11-06T21:33:41.909Z,66.52
2022-11-06T21:36:12.385Z,66.11
2022-11-06T21:38:40.499Z,66.85
2022-11-06T21:41:10.638Z,70.52
2022-11-06T21:43:38.372Z,72.21
2022-11-06T21:46:08.844Z,73.00
2022-11-06T21:48:52.427Z,74.28
2022-11-06T21:51:24.861Z,73.38
2022-11-06T21:54:10.401Z,74.24
2022-11-06T21:56:39.859Z,74.66
2022-11-06T21:59:09.481Z,76.14
2022-11-06T22:01:38.480Z,75.88
2022-11-06T22:04:07.017Z,76.68
2022-11-06T22:06:36.322Z,75.99
2022-11-06T22:09:04.699Z,75.90
2022-11-06T22:11:34.451Z,75.41
2022-11-06T22:14:04.074Z,75.81
2022-11-06T22:16:34.656Z,76.20
2022-11-06T22:19:02.944Z,76.04
2022-11-06T22:21:31.819Z,74.94
2022-11-06T22:24:00.914Z,74.98
2022-11-06T22:26:30.362Z,74.11
2022-11-06T22:29:00.285Z,74.14
2022-11-06T22:31:29.271Z,73.51
2022-11-06T22:33:57.708Z,72.30
2022-11-06T22:36:26.882Z,73.00
2022-11-06T22:38:54.698Z,72.75
2022-11-06T22:41:25.627Z,72.20
2022-11-06T22:43:58.007Z,71.88
2022-11-06T22:46:26.097Z,71.91
2022-11-06T22:48:54.197Z,71.85
2022-11-06T22:51:24.448Z,71.10
2022-11-06T22:53:52.812Z,71.44
2022-11-06T22:56:24.036Z,71.41
2022-11-06T22:58:54.428Z,71.10
2022-11-06T23:01:23.738Z,71.08
2022-11-06T23:03:56.356Z,70.79
2022-11-06T23:06:25.600Z,70.92
2022-11-06T23:08:53.881Z,71.07
2022-11-06T23:11:25.193Z,71.11
2022-11-06T23:13:53.979Z,71.19
2022-11-06T23:16:44.516Z,71.32
2022-11-06T23:19:14.572Z,70.68
2022-11-06T23:21:43.096Z,71.16
2022-11-06T23:24:11.019Z,70.75
2022-11-06T23:26:41.414Z,69.85
2022-11-06T23:29:09.350Z,69.60
2022-11-06T23:31:37.304Z,69.74
2022-11-06T23:34:05.002Z,70.14
2022-11-06T23:36:33.167Z,69.54
2022-11-06T23:39:00.792Z,70.24
2022-11-06T23:41:46.778Z,69.43
2022-11-06T23:44:34.345Z,69.18
2022-11-06T23:47:02.875Z,68.49
2022-11-06T23:49:30.644Z,69.23
2022-11-06T23:51:59.145Z,69.82
2022-11-06T23:54:26.962Z,69.35
2022-11-06T23:56:55.119Z,69.34
2022-11-06T23:59:24.284Z,70.22
